sensor_id;sensor_type;location;lat;lon;timestamp;temperature;humidity
7970;DHT22;4030;52.362;9.206;2023-05-28T00:00:09;17.60;56.70
7970;DHT22;4030;52.362;9.206;2023-05-28T00:02:36;17.60;56.70
7970;DHT22;4030;52.362;9.206;2023-05-28T00:05:03;17.60;56.80
7970;DHT22;4030;52.362;9.206;2023-05-28T00:07:29;17.50;56.70
7970;DHT22;4030;52.362;9.206;2023-05-28T00:09:58;17.40;56.90
7970;DHT22;4030;52.362;9.206;2023-05-28T00:12:24;17.40;56.90
7970;DHT22;4030;52.362;9.206;2023-05-28T00:14:50;17.40;56.90
7970;DHT22;4030;52.362;9.206;2023-05-28T00:17:16;17.40;56.90
7970;DHT22;4030;52.362;9.206;2023-05-28T00:19:43;17.30;56.90
7970;DHT22;4030;52.362;9.206;2023-05-28T00:22:09;17.30;56.90
7970;DHT22;4030;52.362;9.206;2023-05-28T00:24:35;17.30;57.50
7970;DHT22;4030;52.362;9.206;2023-05-28T00:27:01;17.30;57.10
7970;DHT22;4030;52.362;9.206;2023-05-28T00:29:28;17.20;57.00
7970;DHT22;4030;52.362;9.206;2023-05-28T00:34:25;17.20;57.00
7970;DHT22;4030;52.362;9.206;2023-05-28T00:36:51;17.10;57.00
7970;DHT22;4030;52.362;9.206;2023-05-28T00:39:18;17.00;57.00
7970;DHT22;4030;52.362;9.206;2023-05-28T00:41:44;17.10;57.10
7970;DHT22;4030;52.362;9.206;2023-05-28T00:44:10;17.10;57.20
7970;DHT22;4030;52.362;9.206;2023-05-28T00:46:37;17.00;57.20
7970;DHT22;4030;52.362;9.206;2023-05-28T00:49:05;17.00;57.30
7970;DHT22;4030;52.362;9.206;2023-05-28T00:51:31;17.00;57.40
7970;DHT22;4030;52.362;9.206;2023-05-28T00:53:58;16.80;57.20
7970;DHT22;4030;52.362;9.206;2023-05-28T00:56:24;16.90;57.40
7970;DHT22;4030;52.362;9.206;2023-05-28T00:58:50;16.90;57.50
7970;DHT22;4030;52.362;9.206;2023-05-28T01:01:16;16.90;57.40
7970;DHT22;4030;52.362;9.206;2023-05-28T01:03:43;16.80;57.40
7970;DHT22;4030;52.362;9.206;2023-05-28T01:06:12;16.80;57.50
7970;DHT22;4030;52.362;9.206;2023-05-28T01:08:40;16.80;57.40
7970;DHT22;4030;52.362;9.206;2023-05-28T01:11:08;16.70;57.40
7970;DHT22;4030;52.362;9.206;2023-05-28T01:13:36;16.70;57.50
7970;DHT22;4030;52.362;9.206;2023-05-28T01:16:03;16.70;57.60
7970;DHT22;4030;52.362;9.206;2023-05-28T01:18:30;16.70;57.60
7970;DHT22;4030;52.362;9.206;2023-05-28T01:23:26;16.60;57.60
7970;DHT22;4030;52.362;9.206;2023-05-28T01:25:54;16.60;57.60
7970;DHT22;4030;52.362;9.206;2023-05-28T01:28:21;16.60;57.60
7970;DHT22;4030;52.362;9.206;2023-05-28T01:30:49;16.50;57.50
7970;DHT22;4030;52.362;9.206;2023-05-28T01:38:11;16.50;57.70
7970;DHT22;4030;52.362;9.206;2023-05-28T01:40:43;16.40;57.60
7970;DHT22;4030;52.362;9.206;2023-05-28T01:43:10;16.40;57.70
7970;DHT22;4030;52.362;9.206;2023-05-28T01:45:36;16.40;57.80
7970;DHT22;4030;52.362;9.206;2023-05-28T01:48:03;16.30;57.70
7970;DHT22;4030;52.362;9.206;2023-05-28T01:50:29;16.40;57.80
7970;DHT22;4030;52.362;9.206;2023-05-28T01:52:58;16.30;57.80
7970;DHT22;4030;52.362;9.206;2023-05-28T01:55:24;16.30;57.80
7970;DHT22;4030;52.362;9.206;2023-05-28T01:57:50;16.30;57.90
7970;DHT22;4030;52.362;9.206;2023-05-28T02:00:16;16.20;57.80
7970;DHT22;4030;52.362;9.206;2023-05-28T02:02:42;16.20;57.90
7970;DHT22;4030;52.362;9.206;2023-05-28T02:05:08;16.20;58.00
7970;DHT22;4030;52.362;9.206;2023-05-28T02:10:00;16.20;58.10
7970;DHT22;4030;52.362;9.206;2023-05-28T02:24:38;16.00;58.10
7970;DHT22;4030;52.362;9.206;2023-05-28T02:27:06;15.90;58.10
7970;DHT22;4030;52.362;9.206;2023-05-28T02:29:33;15.90;58.10
7970;DHT22;4030;52.362;9.206;2023-05-28T02:32:00;15.90;58.10
7970;DHT22;4030;52.362;9.206;2023-05-28T02:36:54;15.70;58.00
7970;DHT22;4030;52.362;9.206;2023-05-28T02:39:21;15.80;58.10
7970;DHT22;4030;52.362;9.206;2023-05-28T02:44:14;15.80;58.20
7970;DHT22;4030;52.362;9.206;2023-05-28T02:46:39;15.70;58.20
7970;DHT22;4030;52.362;9.206;2023-05-28T02:49:06;15.70;58.30
7970;DHT22;4030;52.362;9.206;2023-05-28T02:51:32;15.70;58.30
7970;DHT22;4030;52.362;9.206;2023-05-28T02:56:23;15.60;58.30
7970;DHT22;4030;52.362;9.206;2023-05-28T02:58:50;15.50;58.30
7970;DHT22;4030;52.362;9.206;2023-05-28T03:01:16;15.60;58.40
7970;DHT22;4030;52.362;9.206;2023-05-28T03:03:42;15.60;58.50
7970;DHT22;4030;52.362;9.206;2023-05-28T03:11:00;15.50;58.50
7970;DHT22;4030;52.362;9.206;2023-05-28T03:15:52;15.40;58.40
7970;DHT22;4030;52.362;9.206;2023-05-28T03:18:17;15.40;58.50
7970;DHT22;4030;52.362;9.206;2023-05-28T03:20:43;15.40;58.60
7970;DHT22;4030;52.362;9.206;2023-05-28T03:23:09;15.40;58.70
7970;DHT22;4030;52.362;9.206;2023-05-28T03:25:34;15.40;58.70
7970;DHT22;4030;52.362;9.206;2023-05-28T03:28:00;15.40;58.80
7970;DHT22;4030;52.362;9.206;2023-05-28T03:30:26;15.40;58.90
7970;DHT22;4030;52.362;9.206;2023-05-28T03:32:52;15.40;59.00
7970;DHT22;4030;52.362;9.206;2023-05-28T03:35:17;15.40;59.00
7970;DHT22;4030;52.362;9.206;2023-05-28T03:37:43;15.30;58.90
7970;DHT22;4030;52.362;9.206;2023-05-28T03:40:09;15.40;59.10
7970;DHT22;4030;52.362;9.206;2023-05-28T03:42:36;15.30;59.00
7970;DHT22;4030;52.362;9.206;2023-05-28T03:47:29;15.40;59.10
7970;DHT22;4030;52.362;9.206;2023-05-28T03:49:57;15.30;59.10
7970;DHT22;4030;52.362;9.206;2023-05-28T03:52:24;15.30;59.10
7970;DHT22;4030;52.362;9.206;2023-05-28T03:54:50;15.30;59.10
7970;DHT22;4030;52.362;9.206;2023-05-28T03:57:15;15.30;59.20
7970;DHT22;4030;52.362;9.206;2023-05-28T03:59:41;15.30;59.20
7970;DHT22;4030;52.362;9.206;2023-05-28T04:02:07;15.30;59.20
7970;DHT22;4030;52.362;9.206;2023-05-28T04:04:32;15.30;59.20
7970;DHT22;4030;52.362;9.206;2023-05-28T04:06:58;15.30;59.30
7970;DHT22;4030;52.362;9.206;2023-05-28T04:09:24;15.20;59.20
7970;DHT22;4030;52.362;9.206;2023-05-28T04:11:50;15.30;59.30
7970;DHT22;4030;52.362;9.206;2023-05-28T04:14:16;15.30;59.30
7970;DHT22;4030;52.362;9.206;2023-05-28T04:16:41;15.30;59.40
7970;DHT22;4030;52.362;9.206;2023-05-28T04:19:07;15.30;59.40
7970;DHT22;4030;52.362;9.206;2023-05-28T04:21:33;15.30;59.50
7970;DHT22;4030;52.362;9.206;2023-05-28T04:23:59;15.30;59.60
7970;DHT22;4030;52.362;9.206;2023-05-28T04:26:25;15.30;59.60
7970;DHT22;4030;52.362;9.206;2023-05-28T04:28:51;15.30;59.60
7970;DHT22;4030;52.362;9.206;2023-05-28T04:31:18;15.30;59.70
7970;DHT22;4030;52.362;9.206;2023-05-28T04:33:44;15.40;59.80
7970;DHT22;4030;52.362;9.206;2023-05-28T04:36:13;15.30;59.70
7970;DHT22;4030;52.362;9.206;2023-05-28T04:38:39;15.40;59.90
7970;DHT22;4030;52.362;9.206;2023-05-28T04:41:05;15.40;60.00
7970;DHT22;4030;52.362;9.206;2023-05-28T04:43:31;15.40;60.00
7970;DHT22;4030;52.362;9.206;2023-05-28T04:45:58;15.40;60.00
7970;DHT22;4030;52.362;9.206;2023-05-28T04:48:26;15.40;60.10
7970;DHT22;4030;52.362;9.206;2023-05-28T04:50:52;15.40;60.10
7970;DHT22;4030;52.362;9.206;2023-05-28T04:55:44;15.50;60.40
7970;DHT22;4030;52.362;9.206;2023-05-28T04:58:10;15.40;61.00
7970;DHT22;4030;52.362;9.206;2023-05-28T05:00:36;15.50;60.50
7970;DHT22;4030;52.362;9.206;2023-05-28T05:03:01;15.50;60.50
7970;DHT22;4030;52.362;9.206;2023-05-28T05:05:28;15.60;60.60
7970;DHT22;4030;52.362;9.206;2023-05-28T05:07:53;15.60;60.70
7970;DHT22;4030;52.362;9.206;2023-05-28T05:10:19;15.60;60.70
7970;DHT22;4030;52.362;9.206;2023-05-28T05:12:45;15.60;60.80
7970;DHT22;4030;52.362;9.206;2023-05-28T05:15:10;15.60;61.50
7970;DHT22;4030;52.362;9.206;2023-05-28T05:17:36;15.70;61.10
7970;DHT22;4030;52.362;9.206;2023-05-28T05:20:03;15.70;61.00
7970;DHT22;4030;52.362;9.206;2023-05-28T05:22:30;15.70;61.70
7970;DHT22;4030;52.362;9.206;2023-05-28T05:24:56;15.70;61.00
7970;DHT22;4030;52.362;9.206;2023-05-28T05:27:22;15.80;61.10
7970;DHT22;4030;52.362;9.206;2023-05-28T05:29:48;15.80;61.10
7970;DHT22;4030;52.362;9.206;2023-05-28T05:32:13;15.80;61.00
7970;DHT22;4030;52.362;9.206;2023-05-28T05:34:39;15.90;61.10
7970;DHT22;4030;52.362;9.206;2023-05-28T05:37:05;16.00;61.20
7970;DHT22;4030;52.362;9.206;2023-05-28T05:39:31;15.90;61.80
7970;DHT22;4030;52.362;9.206;2023-05-28T05:41:57;16.00;61.40
7970;DHT22;4030;52.362;9.206;2023-05-28T05:49:14;16.20;61.30
7970;DHT22;4030;52.362;9.206;2023-05-28T05:51:40;16.20;61.30
7970;DHT22;4030;52.362;9.206;2023-05-28T05:54:06;16.30;61.30
7970;DHT22;4030;52.362;9.206;2023-05-28T05:56:32;16.30;61.20
7970;DHT22;4030;52.362;9.206;2023-05-28T05:58:58;16.30;61.90
7970;DHT22;4030;52.362;9.206;2023-05-28T06:01:24;16.40;61.40
7970;DHT22;4030;52.362;9.206;2023-05-28T06:03:50;16.50;62.10
7970;DHT22;4030;52.362;9.206;2023-05-28T06:06:16;16.60;61.30
7970;DHT22;4030;52.362;9.206;2023-05-28T06:08:42;16.50;61.90
7970;DHT22;4030;52.362;9.206;2023-05-28T06:11:08;16.60;61.90
7970;DHT22;4030;52.362;9.206;2023-05-28T06:13:34;16.70;61.80
7970;DHT22;4030;52.362;9.206;2023-05-28T06:16:01;16.70;61.80
7970;DHT22;4030;52.362;9.206;2023-05-28T06:18:29;16.90;61.30
7970;DHT22;4030;52.362;9.206;2023-05-28T06:20:55;16.90;62.10
7970;DHT22;4030;52.362;9.206;2023-05-28T06:23:21;17.00;61.80
7970;DHT22;4030;52.362;9.206;2023-05-28T06:25:47;17.00;62.50
7970;DHT22;4030;52.362;9.206;2023-05-28T06:28:13;17.20;62.40
7970;DHT22;4030;52.362;9.206;2023-05-28T06:30:39;17.20;63.10
7970;DHT22;4030;52.362;9.206;2023-05-28T06:33:07;17.30;63.10
7970;DHT22;4030;52.362;9.206;2023-05-28T06:35:34;17.40;62.90
7970;DHT22;4030;52.362;9.206;2023-05-28T06:38:00;17.50;63.00
7970;DHT22;4030;52.362;9.206;2023-05-28T06:40:26;17.60;63.20
7970;DHT22;4030;52.362;9.206;2023-05-28T06:42:51;17.60;64.00
7970;DHT22;4030;52.362;9.206;2023-05-28T06:45:17;17.80;63.30
7970;DHT22;4030;52.362;9.206;2023-05-28T06:47:44;17.70;63.90
7970;DHT22;4030;52.362;9.206;2023-05-28T06:50:10;17.80;63.80
7970;DHT22;4030;52.362;9.206;2023-05-28T06:52:36;17.90;63.80
7970;DHT22;4030;52.362;9.206;2023-05-28T06:55:02;18.10;63.10
7970;DHT22;4030;52.362;9.206;2023-05-28T06:57:28;18.10;63.80
7970;DHT22;4030;52.362;9.206;2023-05-28T06:59:53;18.30;63.00
7970;DHT22;4030;52.362;9.206;2023-05-28T07:02:19;18.30;63.70
7970;DHT22;4030;52.362;9.206;2023-05-28T07:04:45;18.40;63.70
7970;DHT22;4030;52.362;9.206;2023-05-28T07:07:11;18.50;64.00
7970;DHT22;4030;52.362;9.206;2023-05-28T07:09:37;18.60;64.10
7970;DHT22;4030;52.362;9.206;2023-05-28T07:12:02;18.70;64.30
7970;DHT22;4030;52.362;9.206;2023-05-28T07:14:28;18.80;64.60
7970;DHT22;4030;52.362;9.206;2023-05-28T07:16:54;18.90;64.80
7970;DHT22;4030;52.362;9.206;2023-05-28T07:19:20;19.00;64.90
7970;DHT22;4030;52.362;9.206;2023-05-28T07:21:46;19.10;65.10
7970;DHT22;4030;52.362;9.206;2023-05-28T07:24:12;19.20;65.10
7970;DHT22;4030;52.362;9.206;2023-05-28T07:26:37;19.40;65.30
7970;DHT22;4030;52.362;9.206;2023-05-28T07:29:03;19.50;65.20
7970;DHT22;4030;52.362;9.206;2023-05-28T07:31:29;19.60;65.20
7970;DHT22;4030;52.362;9.206;2023-05-28T07:33:56;19.70;65.10
7970;DHT22;4030;52.362;9.206;2023-05-28T07:36:22;19.80;65.10
7970;DHT22;4030;52.362;9.206;2023-05-28T07:38:48;19.90;65.00
7970;DHT22;4030;52.362;9.206;2023-05-28T07:41:14;20.10;65.10
7970;DHT22;4030;52.362;9.206;2023-05-28T07:43:39;20.20;65.00
7970;DHT22;4030;52.362;9.206;2023-05-28T07:46:05;20.30;64.90
7970;DHT22;4030;52.362;9.206;2023-05-28T07:48:31;20.40;64.80
7970;DHT22;4030;52.362;9.206;2023-05-28T07:50:56;20.60;64.80
7970;DHT22;4030;52.362;9.206;2023-05-28T07:53:22;20.70;64.70
7970;DHT22;4030;52.362;9.206;2023-05-28T07:55:48;20.80;64.60
7970;DHT22;4030;52.362;9.206;2023-05-28T07:58:14;21.00;64.60
7970;DHT22;4030;52.362;9.206;2023-05-28T08:00:40;21.10;64.50
7970;DHT22;4030;52.362;9.206;2023-05-28T08:03:06;21.20;64.40
7970;DHT22;4030;52.362;9.206;2023-05-28T08:05:32;21.30;64.30
7970;DHT22;4030;52.362;9.206;2023-05-28T08:07:58;21.30;64.10
7970;DHT22;4030;52.362;9.206;2023-05-28T08:10:24;21.40;63.90
7970;DHT22;4030;52.362;9.206;2023-05-28T08:12:50;21.50;63.70
7970;DHT22;4030;52.362;9.206;2023-05-28T08:15:16;21.60;63.50
7970;DHT22;4030;52.362;9.206;2023-05-28T08:17:42;21.70;63.30
7970;DHT22;4030;52.362;9.206;2023-05-28T08:20:08;22.00;62.20
7970;DHT22;4030;52.362;9.206;2023-05-28T08:22:37;22.00;63.00
7970;DHT22;4030;52.362;9.206;2023-05-28T08:25:03;22.10;62.70
7970;DHT22;4030;52.362;9.206;2023-05-28T08:27:30;22.30;62.50
7970;DHT22;4030;52.362;9.206;2023-05-28T08:29:57;22.50;61.30
7970;DHT22;4030;52.362;9.206;2023-05-28T08:32:22;22.50;62.00
7970;DHT22;4030;52.362;9.206;2023-05-28T08:34:48;22.80;60.80
7970;DHT22;4030;52.362;9.206;2023-05-28T08:37:14;22.80;60.30
7970;DHT22;4030;52.362;9.206;2023-05-28T08:39:40;23.00;60.10
7970;DHT22;4030;52.362;9.206;2023-05-28T08:42:06;23.20;60.00
7970;DHT22;4030;52.362;9.206;2023-05-28T08:44:32;23.30;59.70
7970;DHT22;4030;52.362;9.206;2023-05-28T08:46:59;23.40;59.50
7970;DHT22;4030;52.362;9.206;2023-05-28T08:49:32;23.50;59.40
7970;DHT22;4030;52.362;9.206;2023-05-28T08:52:02;23.50;59.20
7970;DHT22;4030;52.362;9.206;2023-05-28T08:54:30;23.50;59.10
7970;DHT22;4030;52.362;9.206;2023-05-28T08:56:56;23.70;59.20
7970;DHT22;4030;52.362;9.206;2023-05-28T08:59:23;23.80;59.10
7970;DHT22;4030;52.362;9.206;2023-05-28T09:01:51;23.80;58.80
7970;DHT22;4030;52.362;9.206;2023-05-28T09:04:16;23.90;58.60
7970;DHT22;4030;52.362;9.206;2023-05-28T09:06:42;24.00;58.30
7970;DHT22;4030;52.362;9.206;2023-05-28T09:09:08;24.10;58.00
7970;DHT22;4030;52.362;9.206;2023-05-28T09:11:34;24.20;57.70
7970;DHT22;4030;52.362;9.206;2023-05-28T09:14:08;24.30;57.50
7970;DHT22;4030;52.362;9.206;2023-05-28T09:16:42;24.40;58.20
7970;DHT22;4030;52.362;9.206;2023-05-28T09:19:10;24.50;57.30
7970;DHT22;4030;52.362;9.206;2023-05-28T09:21:36;24.50;57.80
7970;DHT22;4030;52.362;9.206;2023-05-28T09:24:03;24.60;57.60
7970;DHT22;4030;52.362;9.206;2023-05-28T09:26:30;24.70;57.40
7970;DHT22;4030;52.362;9.206;2023-05-28T09:28:57;24.80;57.20
7970;DHT22;4030;52.362;9.206;2023-05-28T09:31:30;24.90;56.80
7970;DHT22;4030;52.362;9.206;2023-05-28T09:34:04;24.90;56.50
7970;DHT22;4030;52.362;9.206;2023-05-28T09:36:30;25.00;56.00
7970;DHT22;4030;52.362;9.206;2023-05-28T09:38:57;25.10;55.30
7970;DHT22;4030;52.362;9.206;2023-05-28T09:41:24;25.20;54.90
7970;DHT22;4030;52.362;9.206;2023-05-28T09:43:59;25.30;55.00
7970;DHT22;4030;52.362;9.206;2023-05-28T09:46:32;25.40;54.80
7970;DHT22;4030;52.362;9.206;2023-05-28T09:48:59;25.50;54.70
7970;DHT22;4030;52.362;9.206;2023-05-28T09:51:27;25.70;54.70
7970;DHT22;4030;52.362;9.206;2023-05-28T09:53:58;25.80;54.60
7970;DHT22;4030;52.362;9.206;2023-05-28T09:56:28;25.90;54.60
7970;DHT22;4030;52.362;9.206;2023-05-28T09:58:58;26.00;54.60
7970;DHT22;4030;52.362;9.206;2023-05-28T10:01:29;25.90;54.50
7970;DHT22;4030;52.362;9.206;2023-05-28T10:04:03;26.00;54.40
7970;DHT22;4030;52.362;9.206;2023-05-28T10:06:32;26.10;54.40
7970;DHT22;4030;52.362;9.206;2023-05-28T10:08:59;26.20;54.30
7970;DHT22;4030;52.362;9.206;2023-05-28T10:11:29;26.30;54.20
7970;DHT22;4030;52.362;9.206;2023-05-28T10:13:57;26.50;54.00
7970;DHT22;4030;52.362;9.206;2023-05-28T10:16:23;26.60;53.90
7970;DHT22;4030;52.362;9.206;2023-05-28T10:18:51;26.70;53.80
7970;DHT22;4030;52.362;9.206;2023-05-28T10:21:17;26.90;53.60
7970;DHT22;4030;52.362;9.206;2023-05-28T10:23:45;27.00;53.60
7970;DHT22;4030;52.362;9.206;2023-05-28T10:26:13;27.20;53.40
7970;DHT22;4030;52.362;9.206;2023-05-28T10:28:40;27.30;53.30
7970;DHT22;4030;52.362;9.206;2023-05-28T10:31:07;27.40;53.00
7970;DHT22;4030;52.362;9.206;2023-05-28T10:33:40;27.50;52.80
7970;DHT22;4030;52.362;9.206;2023-05-28T10:36:14;27.50;52.80
7970;DHT22;4030;52.362;9.206;2023-05-28T10:38:57;27.60;52.40
7970;DHT22;4030;52.362;9.206;2023-05-28T10:41:31;27.70;52.80
7970;DHT22;4030;52.362;9.206;2023-05-28T10:44:05;27.70;52.70
7970;DHT22;4030;52.362;9.206;2023-05-28T10:46:36;27.80;52.80
7970;DHT22;4030;52.362;9.206;2023-05-28T10:49:13;27.80;52.80
7970;DHT22;4030;52.362;9.206;2023-05-28T10:51:44;27.70;53.00
7970;DHT22;4030;52.362;9.206;2023-05-28T10:54:24;27.60;53.80
7970;DHT22;4030;52.362;9.206;2023-05-28T10:57:15;27.40;53.10
7970;DHT22;4030;52.362;9.206;2023-05-28T10:59:52;27.30;53.30
7970;DHT22;4030;52.362;9.206;2023-05-28T11:02:25;27.20;53.50
7970;DHT22;4030;52.362;9.206;2023-05-28T11:04:55;27.10;53.60
7970;DHT22;4030;52.362;9.206;2023-05-28T11:07:23;27.00;53.70
7970;DHT22;4030;52.362;9.206;2023-05-28T11:09:57;26.90;53.80
7970;DHT22;4030;52.362;9.206;2023-05-28T11:12:26;26.90;53.70
7970;DHT22;4030;52.362;9.206;2023-05-28T11:14:52;26.90;53.80
7970;DHT22;4030;52.362;9.206;2023-05-28T11:17:18;26.90;53.80
7970;DHT22;4030;52.362;9.206;2023-05-28T11:19:48;26.90;53.80
7970;DHT22;4030;52.362;9.206;2023-05-28T11:22:17;26.80;53.90
7970;DHT22;4030;52.362;9.206;2023-05-28T11:24:56;26.80;54.00
7970;DHT22;4030;52.362;9.206;2023-05-28T11:27:30;26.70;54.00
7970;DHT22;4030;52.362;9.206;2023-05-28T11:29:59;26.80;53.90
7970;DHT22;4030;52.362;9.206;2023-05-28T11:32:26;27.00;53.70
7970;DHT22;4030;52.362;9.206;2023-05-28T11:34:55;27.20;53.50
7970;DHT22;4030;52.362;9.206;2023-05-28T11:37:35;27.40;53.10
7970;DHT22;4030;52.362;9.206;2023-05-28T11:40:02;27.60;52.70
7970;DHT22;4030;52.362;9.206;2023-05-28T11:42:36;27.80;52.20
7970;DHT22;4030;52.362;9.206;2023-05-28T11:45:04;27.90;51.50
7970;DHT22;4030;52.362;9.206;2023-05-28T11:47:33;28.00;51.20
7970;DHT22;4030;52.362;9.206;2023-05-28T11:50:08;28.20;51.50
7970;DHT22;4030;52.362;9.206;2023-05-28T11:52:35;28.30;51.30
7970;DHT22;4030;52.362;9.206;2023-05-28T11:55:02;28.50;51.50
7970;DHT22;4030;52.362;9.206;2023-05-28T11:57:30;28.60;51.40
7970;DHT22;4030;52.362;9.206;2023-05-28T12:00:06;28.70;50.90
7970;DHT22;4030;52.362;9.206;2023-05-28T12:02:53;28.80;50.50
7970;DHT22;4030;52.362;9.206;2023-05-28T12:05:19;28.80;50.10
7970;DHT22;4030;52.362;9.206;2023-05-28T12:07:47;28.90;50.00
7970;DHT22;4030;52.362;9.206;2023-05-28T12:10:15;29.00;49.80
7970;DHT22;4030;52.362;9.206;2023-05-28T12:12:52;29.00;49.70
7970;DHT22;4030;52.362;9.206;2023-05-28T12:15:27;29.10;49.40
7970;DHT22;4030;52.362;9.206;2023-05-28T12:17:58;29.20;49.20
7970;DHT22;4030;52.362;9.206;2023-05-28T12:20:29;29.30;48.90
7970;DHT22;4030;52.362;9.206;2023-05-28T12:23:08;29.40;48.70
7970;DHT22;4030;52.362;9.206;2023-05-28T12:25:50;29.40;48.30
7970;DHT22;4030;52.362;9.206;2023-05-28T12:28:17;29.50;48.10
7970;DHT22;4030;52.362;9.206;2023-05-28T12:30:49;29.50;47.80
7970;DHT22;4030;52.362;9.206;2023-05-28T12:33:23;29.60;47.10
7970;DHT22;4030;52.362;9.206;2023-05-28T12:35:49;29.70;46.90
7970;DHT22;4030;52.362;9.206;2023-05-28T12:38:15;29.80;46.80
7970;DHT22;4030;52.362;9.206;2023-05-28T12:40:43;29.80;46.70
7970;DHT22;4030;52.362;9.206;2023-05-28T12:43:09;29.80;46.80
7970;DHT22;4030;52.362;9.206;2023-05-28T12:45:35;29.90;46.80
7970;DHT22;4030;52.362;9.206;2023-05-28T12:48:00;29.90;46.60
7970;DHT22;4030;52.362;9.206;2023-05-28T12:50:26;30.00;46.20
7970;DHT22;4030;52.362;9.206;2023-05-28T12:52:52;30.10;46.20
7970;DHT22;4030;52.362;9.206;2023-05-28T12:55:18;30.10;46.30
7970;DHT22;4030;52.362;9.206;2023-05-28T12:57:43;30.20;46.30
7970;DHT22;4030;52.362;9.206;2023-05-28T13:00:10;30.20;46.20
7970;DHT22;4030;52.362;9.206;2023-05-28T13:02:37;30.20;46.20
7970;DHT22;4030;52.362;9.206;2023-05-28T13:05:03;30.30;46.20
7970;DHT22;4030;52.362;9.206;2023-05-28T13:07:29;30.30;46.10
7970;DHT22;4030;52.362;9.206;2023-05-28T13:09:55;30.40;46.10
7970;DHT22;4030;52.362;9.206;2023-05-28T13:12:20;30.40;46.10
7970;DHT22;4030;52.362;9.206;2023-05-28T13:14:46;30.40;46.00
7970;DHT22;4030;52.362;9.206;2023-05-28T13:17:12;30.50;45.90
7970;DHT22;4030;52.362;9.206;2023-05-28T13:19:37;30.50;45.70
7970;DHT22;4030;52.362;9.206;2023-05-28T13:22:03;30.50;45.60
7970;DHT22;4030;52.362;9.206;2023-05-28T13:24:29;30.60;45.40
7970;DHT22;4030;52.362;9.206;2023-05-28T13:26:55;30.60;45.30
7970;DHT22;4030;52.362;9.206;2023-05-28T13:29:20;30.70;45.40
7970;DHT22;4030;52.362;9.206;2023-05-28T13:31:46;30.70;45.20
7970;DHT22;4030;52.362;9.206;2023-05-28T13:34:12;30.80;45.20
7970;DHT22;4030;52.362;9.206;2023-05-28T13:36:37;30.80;45.10
7970;DHT22;4030;52.362;9.206;2023-05-28T13:39:03;30.90;45.00
7970;DHT22;4030;52.362;9.206;2023-05-28T13:41:30;30.90;44.90
7970;DHT22;4030;52.362;9.206;2023-05-28T13:43:57;31.00;44.80
7970;DHT22;4030;52.362;9.206;2023-05-28T13:46:23;31.00;44.70
7970;DHT22;4030;52.362;9.206;2023-05-28T13:48:53;31.10;44.70
7970;DHT22;4030;52.362;9.206;2023-05-28T13:51:19;31.20;44.70
7970;DHT22;4030;52.362;9.206;2023-05-28T13:53:45;31.20;44.50
7970;DHT22;4030;52.362;9.206;2023-05-28T13:56:13;31.20;44.10
7970;DHT22;4030;52.362;9.206;2023-05-28T13:58:39;31.30;44.00
7970;DHT22;4030;52.362;9.206;2023-05-28T14:01:04;31.30;44.10
7970;DHT22;4030;52.362;9.206;2023-05-28T14:03:30;31.40;44.10
7970;DHT22;4030;52.362;9.206;2023-05-28T14:05:56;31.40;44.10
7970;DHT22;4030;52.362;9.206;2023-05-28T14:08:21;31.40;43.90
7970;DHT22;4030;52.362;9.206;2023-05-28T14:10:48;31.50;44.00
7970;DHT22;4030;52.362;9.206;2023-05-28T14:13:14;31.50;43.50
7970;DHT22;4030;52.362;9.206;2023-05-28T14:15:40;31.60;43.50
7970;DHT22;4030;52.362;9.206;2023-05-28T14:18:05;31.70;43.60
7970;DHT22;4030;52.362;9.206;2023-05-28T14:20:31;31.70;43.20
7970;DHT22;4030;52.362;9.206;2023-05-28T14:23:00;31.80;43.10
7970;DHT22;4030;52.362;9.206;2023-05-28T14:25:27;31.90;43.20
7970;DHT22;4030;52.362;9.206;2023-05-28T14:27:53;31.90;43.00
7970;DHT22;4030;52.362;9.206;2023-05-28T14:30:19;32.00;42.90
7970;DHT22;4030;52.362;9.206;2023-05-28T14:32:44;32.10;42.70
7970;DHT22;4030;52.362;9.206;2023-05-28T14:35:10;32.20;42.50
7970;DHT22;4030;52.362;9.206;2023-05-28T14:37:36;32.20;42.50
7970;DHT22;4030;52.362;9.206;2023-05-28T14:40:02;32.10;42.70
7970;DHT22;4030;52.362;9.206;2023-05-28T14:42:30;32.10;42.70
7970;DHT22;4030;52.362;9.206;2023-05-28T14:44:55;31.90;43.40
7970;DHT22;4030;52.362;9.206;2023-05-28T14:47:21;31.90;43.00
7970;DHT22;4030;52.362;9.206;2023-05-28T14:49:47;31.70;43.40
7970;DHT22;4030;52.362;9.206;2023-05-28T14:52:26;31.70;43.90
7970;DHT22;4030;52.362;9.206;2023-05-28T14:54:53;31.50;44.30
7970;DHT22;4030;52.362;9.206;2023-05-28T14:57:20;31.40;44.60
7970;DHT22;4030;52.362;9.206;2023-05-28T14:59:46;31.40;45.00
7970;DHT22;4030;52.362;9.206;2023-05-28T15:02:12;31.20;45.20
7970;DHT22;4030;52.362;9.206;2023-05-28T15:04:39;31.20;45.30
7970;DHT22;4030;52.362;9.206;2023-05-28T15:07:06;31.10;45.60
7970;DHT22;4030;52.362;9.206;2023-05-28T15:09:32;31.00;45.60
7970;DHT22;4030;52.362;9.206;2023-05-28T15:11:58;31.00;45.90
7970;DHT22;4030;52.362;9.206;2023-05-28T15:14:23;30.90;46.10
7970;DHT22;4030;52.362;9.206;2023-05-28T15:16:51;30.90;46.00
7970;DHT22;4030;52.362;9.206;2023-05-28T15:19:17;30.80;45.90
7970;DHT22;4030;52.362;9.206;2023-05-28T15:21:42;30.60;46.40
7970;DHT22;4030;52.362;9.206;2023-05-28T15:24:08;30.40;46.60
7970;DHT22;4030;52.362;9.206;2023-05-28T15:26:34;30.20;46.80
7970;DHT22;4030;52.362;9.206;2023-05-28T15:29:00;30.00;47.30
7970;DHT22;4030;52.362;9.206;2023-05-28T15:31:26;29.90;47.80
7970;DHT22;4030;52.362;9.206;2023-05-28T15:33:52;29.60;48.30
7970;DHT22;4030;52.362;9.206;2023-05-28T15:36:18;29.40;48.50
7970;DHT22;4030;52.362;9.206;2023-05-28T15:38:44;29.30;48.80
7970;DHT22;4030;52.362;9.206;2023-05-28T15:41:10;29.20;49.00
7970;DHT22;4030;52.362;9.206;2023-05-28T15:43:37;29.10;48.70
7970;DHT22;4030;52.362;9.206;2023-05-28T15:46:03;29.10;47.70
7970;DHT22;4030;52.362;9.206;2023-05-28T15:48:29;29.00;46.70
7970;DHT22;4030;52.362;9.206;2023-05-28T15:50:54;28.90;45.60
7970;DHT22;4030;52.362;9.206;2023-05-28T15:53:21;28.80;45.70
7970;DHT22;4030;52.362;9.206;2023-05-28T15:55:47;28.70;46.60
7970;DHT22;4030;52.362;9.206;2023-05-28T15:58:12;28.70;47.70
7970;DHT22;4030;52.362;9.206;2023-05-28T16:00:38;28.70;48.40
7970;DHT22;4030;52.362;9.206;2023-05-28T16:03:05;28.60;48.60
7970;DHT22;4030;52.362;9.206;2023-05-28T16:05:31;28.60;49.00
7970;DHT22;4030;52.362;9.206;2023-05-28T16:07:57;28.60;49.30
7970;DHT22;4030;52.362;9.206;2023-05-28T16:10:23;28.50;49.50
7970;DHT22;4030;52.362;9.206;2023-05-28T16:12:51;28.50;49.70
7970;DHT22;4030;52.362;9.206;2023-05-28T16:15:20;28.40;49.90
7970;DHT22;4030;52.362;9.206;2023-05-28T16:17:47;28.40;50.00
7970;DHT22;4030;52.362;9.206;2023-05-28T16:20:13;28.30;50.10
7970;DHT22;4030;52.362;9.206;2023-05-28T16:22:39;28.20;50.10
7970;DHT22;4030;52.362;9.206;2023-05-28T16:25:05;28.10;50.10
7970;DHT22;4030;52.362;9.206;2023-05-28T16:27:33;28.10;50.20
7970;DHT22;4030;52.362;9.206;2023-05-28T16:30:00;28.00;50.30
7970;DHT22;4030;52.362;9.206;2023-05-28T16:32:26;27.90;50.30
7970;DHT22;4030;52.362;9.206;2023-05-28T16:34:53;27.90;50.30
7970;DHT22;4030;52.362;9.206;2023-05-28T16:37:19;27.80;50.40
7970;DHT22;4030;52.362;9.206;2023-05-28T16:39:45;27.70;50.10
7970;DHT22;4030;52.362;9.206;2023-05-28T16:42:11;27.50;48.10
7970;DHT22;4030;52.362;9.206;2023-05-28T16:44:37;27.40;48.70
7970;DHT22;4030;52.362;9.206;2023-05-28T16:47:03;27.40;49.60
7970;DHT22;4030;52.362;9.206;2023-05-28T16:49:30;27.30;48.80